Granby Center, New York
Current Conditions -  °F | °C
As of 11:54 AM on Sunday 21 Dec 2014 (Local Time) from KFZY Reporting Station
Haze Haze  
Wind Chill: 25°   Ceiling: 2300
Heat Index: 30°   Visibility: 6mi
Dew Point: 24°   Wind: 5mph
Humidity: 79%   Direction: 180°S
Pressure: 30.31"   Gusts: NA
Location:  43.3608°N, 76.3536°W
Report Text: KFZY 211654Z AUTO 18004KT 6SM HZ OVC023 M01/M04 A3031 RMK AO2 SLP271 T10111044
Loading
Personal Weather Stations






























Interactive Weather Map New forecast layout! Learn more

10-Day Weather Forecast

Advertisements
Track Severe Weather on mobile